sensor_id;sensor_type;location;lat;lon;timestamp;P1;durP1;ratioP1;P2;durP2;ratioP2
23720;SDS011;42950;52.134;5.578;2022-09-01T00:01:10;3.97;;;1.13;;
23720;SDS011;42950;52.134;5.578;2022-09-01T00:03:42;3.10;;;1.30;;
23720;SDS011;42950;52.134;5.578;2022-09-01T00:06:10;2.97;;;1.40;;
23720;SDS011;42950;52.134;5.578;2022-09-01T00:08:36;4.82;;;1.50;;
23720;SDS011;42950;52.134;5.578;2022-09-01T00:11:02;1.90;;;1.00;;
23720;SDS011;42950;52.134;5.578;2022-09-01T00:13:27;2.92;;;1.05;;
23720;SDS011;42950;52.134;5.578;2022-09-01T00:15:57;7.65;;;1.35;;
23720;SDS011;42950;52.134;5.578;2022-09-01T00:18:23;3.90;;;1.33;;
23720;SDS011;42950;52.134;5.578;2022-09-01T00:20:48;4.30;;;1.30;;
23720;SDS011;42950;52.134;5.578;2022-09-01T00:23:14;2.25;;;1.30;;
23720;SDS011;42950;52.134;5.578;2022-09-01T00:25:40;4.45;;;1.50;;
23720;SDS011;42950;52.134;5.578;2022-09-01T00:28:05;3.15;;;1.35;;
23720;SDS011;42950;52.134;5.578;2022-09-01T00:30:31;3.85;;;1.45;;
23720;SDS011;42950;52.134;5.578;2022-09-01T00:32:56;3.45;;;1.30;;
23720;SDS011;42950;52.134;5.578;2022-09-01T00:35:22;3.72;;;1.58;;
23720;SDS011;42950;52.134;5.578;2022-09-01T00:37:48;2.78;;;1.25;;
23720;SDS011;42950;52.134;5.578;2022-09-01T00:40:14;3.10;;;1.40;;
23720;SDS011;42950;52.134;5.578;2022-09-01T00:42:41;2.78;;;1.25;;
23720;SDS011;42950;52.134;5.578;2022-09-01T00:45:10;1.58;;;1.30;;
23720;SDS011;42950;52.134;5.578;2022-09-01T00:47:36;7.32;;;1.65;;
23720;SDS011;42950;52.134;5.578;2022-09-01T00:50:05;4.53;;;1.27;;
23720;SDS011;42950;52.134;5.578;2022-09-01T00:52:35;4.22;;;1.40;;
23720;SDS011;42950;52.134;5.578;2022-09-01T00:55:11;2.45;;;1.40;;
23720;SDS011;42950;52.134;5.578;2022-09-01T00:57:40;4.28;;;1.63;;
23720;SDS011;42950;52.134;5.578;2022-09-01T01:00:08;3.75;;;1.60;;
23720;SDS011;42950;52.134;5.578;2022-09-01T01:02:39;3.47;;;1.38;;
23720;SDS011;42950;52.134;5.578;2022-09-01T01:05:06;2.25;;;1.45;;
23720;SDS011;42950;52.134;5.578;2022-09-01T01:07:33;2.28;;;1.20;;
23720;SDS011;42950;52.134;5.578;2022-09-01T01:10:03;3.75;;;1.40;;
23720;SDS011;42950;52.134;5.578;2022-09-01T01:12:31;2.95;;;1.60;;
23720;SDS011;42950;52.134;5.578;2022-09-01T01:14:57;1.73;;;1.40;;
23720;SDS011;42950;52.134;5.578;2022-09-01T01:17:23;1.80;;;1.52;;
23720;SDS011;42950;52.134;5.578;2022-09-01T01:19:50;1.80;;;1.60;;
23720;SDS011;42950;52.134;5.578;2022-09-01T01:30:55;4.20;;;1.55;;
23720;SDS011;42950;52.134;5.578;2022-09-01T01:33:27;2.88;;;1.67;;
23720;SDS011;42950;52.134;5.578;2022-09-01T01:35:55;2.78;;;1.30;;
23720;SDS011;42950;52.134;5.578;2022-09-01T01:38:22;3.83;;;2.00;;
23720;SDS011;42950;52.134;5.578;2022-09-01T01:40:48;2.72;;;1.50;;
23720;SDS011;42950;52.134;5.578;2022-09-01T01:43:14;2.15;;;1.38;;
23720;SDS011;42950;52.134;5.578;2022-09-01T01:45:44;3.47;;;1.70;;
23720;SDS011;42950;52.134;5.578;2022-09-01T01:48:12;2.88;;;1.52;;
23720;SDS011;42950;52.134;5.578;2022-09-01T01:50:39;1.45;;;1.30;;
23720;SDS011;42950;52.134;5.578;2022-09-01T01:53:07;4.18;;;1.80;;
23720;SDS011;42950;52.134;5.578;2022-09-01T01:55:33;2.10;;;1.40;;
23720;SDS011;42950;52.134;5.578;2022-09-01T01:57:59;2.38;;;1.20;;
23720;SDS011;42950;52.134;5.578;2022-09-01T02:00:27;1.83;;;1.40;;
23720;SDS011;42950;52.134;5.578;2022-09-01T02:02:55;2.53;;;1.30;;
23720;SDS011;42950;52.134;5.578;2022-09-01T02:05:22;4.30;;;1.50;;
23720;SDS011;42950;52.134;5.578;2022-09-01T02:07:55;5.07;;;1.70;;
23720;SDS011;42950;52.134;5.578;2022-09-01T02:10:28;2.42;;;1.65;;
23720;SDS011;42950;52.134;5.578;2022-09-01T02:12:57;3.42;;;1.80;;
23720;SDS011;42950;52.134;5.578;2022-09-01T02:15:27;2.45;;;1.80;;
23720;SDS011;42950;52.134;5.578;2022-09-01T02:17:54;3.22;;;1.90;;
23720;SDS011;42950;52.134;5.578;2022-09-01T02:20:24;3.28;;;1.67;;
23720;SDS011;42950;52.134;5.578;2022-09-01T02:22:54;4.47;;;1.88;;
23720;SDS011;42950;52.134;5.578;2022-09-01T02:25:20;5.60;;;1.92;;
23720;SDS011;42950;52.134;5.578;2022-09-01T02:27:46;4.03;;;1.90;;
23720;SDS011;42950;52.134;5.578;2022-09-01T02:30:15;2.55;;;1.52;;
23720;SDS011;42950;52.134;5.578;2022-09-01T02:32:40;2.22;;;1.70;;
23720;SDS011;42950;52.134;5.578;2022-09-01T02:35:06;5.82;;;1.70;;
23720;SDS011;42950;52.134;5.578;2022-09-01T02:37:34;3.45;;;2.03;;
23720;SDS011;42950;52.134;5.578;2022-09-01T02:40:03;1.92;;;1.73;;
23720;SDS011;42950;52.134;5.578;2022-09-01T02:42:30;5.90;;;1.83;;
23720;SDS011;42950;52.134;5.578;2022-09-01T02:44:56;5.63;;;1.52;;
23720;SDS011;42950;52.134;5.578;2022-09-01T02:47:22;2.10;;;1.45;;
23720;SDS011;42950;52.134;5.578;2022-09-01T02:49:51;5.10;;;2.00;;
23720;SDS011;42950;52.134;5.578;2022-09-01T02:52:17;4.82;;;2.20;;
23720;SDS011;42950;52.134;5.578;2022-09-01T02:54:45;4.25;;;1.80;;
23720;SDS011;42950;52.134;5.578;2022-09-01T02:57:12;2.38;;;1.77;;
23720;SDS011;42950;52.134;5.578;2022-09-01T02:59:39;4.43;;;1.90;;
23720;SDS011;42950;52.134;5.578;2022-09-01T03:02:06;2.65;;;1.63;;
23720;SDS011;42950;52.134;5.578;2022-09-01T03:04:32;2.25;;;1.50;;
23720;SDS011;42950;52.134;5.578;2022-09-01T03:06:59;8.52;;;2.38;;
23720;SDS011;42950;52.134;5.578;2022-09-01T03:09:25;3.15;;;1.80;;
23720;SDS011;42950;52.134;5.578;2022-09-01T03:11:52;3.45;;;1.88;;
23720;SDS011;42950;52.134;5.578;2022-09-01T03:14:18;3.58;;;2.05;;
23720;SDS011;42950;52.134;5.578;2022-09-01T03:16:45;2.25;;;2.05;;
23720;SDS011;42950;52.134;5.578;2022-09-01T03:19:11;3.13;;;1.90;;
23720;SDS011;42950;52.134;5.578;2022-09-01T03:21:39;3.47;;;2.10;;
23720;SDS011;42950;52.134;5.578;2022-09-01T03:24:08;2.88;;;1.70;;
23720;SDS011;42950;52.134;5.578;2022-09-01T03:26:36;4.70;;;2.35;;
23720;SDS011;42950;52.134;5.578;2022-09-01T03:29:02;3.75;;;2.03;;
23720;SDS011;42950;52.134;5.578;2022-09-01T03:31:28;3.35;;;2.35;;
23720;SDS011;42950;52.134;5.578;2022-09-01T03:33:54;5.00;;;2.10;;
23720;SDS011;42950;52.134;5.578;2022-09-01T03:36:21;3.00;;;2.00;;
23720;SDS011;42950;52.134;5.578;2022-09-01T03:38:52;3.10;;;2.13;;
23720;SDS011;42950;52.134;5.578;2022-09-01T03:41:20;3.25;;;1.98;;
23720;SDS011;42950;52.134;5.578;2022-09-01T03:43:49;4.60;;;2.20;;
23720;SDS011;42950;52.134;5.578;2022-09-01T03:46:15;3.28;;;1.83;;
23720;SDS011;42950;52.134;5.578;2022-09-01T03:48:45;4.10;;;2.13;;
23720;SDS011;42950;52.134;5.578;2022-09-01T03:51:15;4.78;;;1.95;;
23720;SDS011;42950;52.134;5.578;2022-09-01T03:53:42;2.88;;;2.00;;
23720;SDS011;42950;52.134;5.578;2022-09-01T03:56:07;2.40;;;2.10;;
23720;SDS011;42950;52.134;5.578;2022-09-01T03:58:33;4.80;;;2.00;;
23720;SDS011;42950;52.134;5.578;2022-09-01T04:00:59;4.80;;;2.55;;
23720;SDS011;42950;52.134;5.578;2022-09-01T04:03:30;2.58;;;2.00;;
23720;SDS011;42950;52.134;5.578;2022-09-01T04:05:58;3.22;;;1.90;;
23720;SDS011;42950;52.134;5.578;2022-09-01T04:08:26;4.85;;;2.10;;
23720;SDS011;42950;52.134;5.578;2022-09-01T04:10:55;2.00;;;1.80;;
23720;SDS011;42950;52.134;5.578;2022-09-01T04:13:26;2.78;;;2.03;;
23720;SDS011;42950;52.134;5.578;2022-09-01T04:15:55;2.20;;;1.60;;
23720;SDS011;42950;52.134;5.578;2022-09-01T04:18:21;2.03;;;1.75;;
23720;SDS011;42950;52.134;5.578;2022-09-01T04:20:51;3.30;;;1.75;;
23720;SDS011;42950;52.134;5.578;2022-09-01T04:25:56;6.47;;;1.85;;
23720;SDS011;42950;52.134;5.578;2022-09-01T04:28:24;2.20;;;1.80;;
23720;SDS011;42950;52.134;5.578;2022-09-01T04:30:55;3.97;;;1.80;;
23720;SDS011;42950;52.134;5.578;2022-09-01T04:33:25;4.05;;;1.98;;
23720;SDS011;42950;52.134;5.578;2022-09-01T04:36:01;5.47;;;2.25;;
23720;SDS011;42950;52.134;5.578;2022-09-01T04:38:27;3.72;;;1.80;;
23720;SDS011;42950;52.134;5.578;2022-09-01T04:40:53;3.55;;;1.90;;
23720;SDS011;42950;52.134;5.578;2022-09-01T04:43:21;2.72;;;2.03;;
23720;SDS011;42950;52.134;5.578;2022-09-01T04:45:47;3.25;;;1.75;;
23720;SDS011;42950;52.134;5.578;2022-09-01T04:48:16;5.80;;;1.75;;
23720;SDS011;42950;52.134;5.578;2022-09-01T04:50:44;4.88;;;1.83;;
23720;SDS011;42950;52.134;5.578;2022-09-01T04:53:11;4.53;;;1.75;;
23720;SDS011;42950;52.134;5.578;2022-09-01T04:55:37;4.53;;;1.98;;
23720;SDS011;42950;52.134;5.578;2022-09-01T04:58:07;2.17;;;1.70;;
23720;SDS011;42950;52.134;5.578;2022-09-01T05:00:34;2.92;;;1.50;;
23720;SDS011;42950;52.134;5.578;2022-09-01T05:03:01;3.63;;;1.83;;
23720;SDS011;42950;52.134;5.578;2022-09-01T05:05:34;3.72;;;1.92;;
23720;SDS011;42950;52.134;5.578;2022-09-01T05:08:06;4.63;;;2.00;;
23720;SDS011;42950;52.134;5.578;2022-09-01T05:10:37;4.55;;;1.80;;
23720;SDS011;42950;52.134;5.578;2022-09-01T05:13:06;5.25;;;2.00;;
23720;SDS011;42950;52.134;5.578;2022-09-01T05:15:34;3.00;;;2.10;;
23720;SDS011;42950;52.134;5.578;2022-09-01T05:18:02;2.25;;;1.63;;
23720;SDS011;42950;52.134;5.578;2022-09-01T05:20:35;3.25;;;1.70;;
23720;SDS011;42950;52.134;5.578;2022-09-01T05:23:03;2.88;;;1.60;;
23720;SDS011;42950;52.134;5.578;2022-09-01T05:25:29;5.10;;;1.83;;
23720;SDS011;42950;52.134;5.578;2022-09-01T05:27:55;4.38;;;1.50;;
23720;SDS011;42950;52.134;5.578;2022-09-01T05:30:21;5.60;;;1.75;;
23720;SDS011;42950;52.134;5.578;2022-09-01T05:32:48;3.30;;;1.80;;
23720;SDS011;42950;52.134;5.578;2022-09-01T05:35:14;2.95;;;1.85;;
23720;SDS011;42950;52.134;5.578;2022-09-01T05:37:40;2.35;;;1.50;;
23720;SDS011;42950;52.134;5.578;2022-09-01T05:40:07;2.63;;;1.50;;
23720;SDS011;42950;52.134;5.578;2022-09-01T05:42:39;3.95;;;1.63;;
23720;SDS011;42950;52.134;5.578;2022-09-01T05:45:06;3.10;;;1.63;;
23720;SDS011;42950;52.134;5.578;2022-09-01T05:47:35;3.33;;;1.50;;
23720;SDS011;42950;52.134;5.578;2022-09-01T05:50:03;1.63;;;1.50;;
23720;SDS011;42950;52.134;5.578;2022-09-01T05:52:31;2.97;;;1.60;;
23720;SDS011;42950;52.134;5.578;2022-09-01T05:54:57;3.30;;;1.50;;
23720;SDS011;42950;52.134;5.578;2022-09-01T05:57:25;3.35;;;1.75;;
23720;SDS011;42950;52.134;5.578;2022-09-01T05:59:50;3.30;;;1.92;;
23720;SDS011;42950;52.134;5.578;2022-09-01T06:02:18;2.95;;;1.50;;
23720;SDS011;42950;52.134;5.578;2022-09-01T06:04:45;2.40;;;1.70;;
23720;SDS011;42950;52.134;5.578;2022-09-01T06:07:13;3.75;;;1.70;;
23720;SDS011;42950;52.134;5.578;2022-09-01T06:09:41;3.25;;;1.50;;
23720;SDS011;42950;52.134;5.578;2022-09-01T06:12:11;3.33;;;1.70;;
23720;SDS011;42950;52.134;5.578;2022-09-01T06:14:41;2.75;;;1.60;;
23720;SDS011;42950;52.134;5.578;2022-09-01T06:17:08;2.10;;;1.52;;
23720;SDS011;42950;52.134;5.578;2022-09-01T06:19:35;2.35;;;1.60;;
23720;SDS011;42950;52.134;5.578;2022-09-01T06:22:02;2.20;;;1.58;;
23720;SDS011;42950;52.134;5.578;2022-09-01T06:24:28;6.10;;;1.75;;
23720;SDS011;42950;52.134;5.578;2022-09-01T06:26:53;3.35;;;1.60;;
23720;SDS011;42950;52.134;5.578;2022-09-01T06:29:19;3.15;;;1.40;;
23720;SDS011;42950;52.134;5.578;2022-09-01T06:31:45;3.80;;;2.10;;
23720;SDS011;42950;52.134;5.578;2022-09-01T06:34:15;3.75;;;1.60;;
23720;SDS011;42950;52.134;5.578;2022-09-01T06:36:42;4.35;;;1.60;;
23720;SDS011;42950;52.134;5.578;2022-09-01T06:39:09;2.75;;;1.40;;
23720;SDS011;42950;52.134;5.578;2022-09-01T06:41:43;3.33;;;1.58;;
23720;SDS011;42950;52.134;5.578;2022-09-01T06:44:11;4.45;;;1.60;;
23720;SDS011;42950;52.134;5.578;2022-09-01T06:46:39;3.55;;;1.60;;
23720;SDS011;42950;52.134;5.578;2022-09-01T06:49:05;6.15;;;1.60;;
23720;SDS011;42950;52.134;5.578;2022-09-01T06:51:35;3.75;;;1.73;;
23720;SDS011;42950;52.134;5.578;2022-09-01T06:54:01;3.35;;;1.58;;
23720;SDS011;42950;52.134;5.578;2022-09-01T06:56:28;4.47;;;1.90;;
23720;SDS011;42950;52.134;5.578;2022-09-01T06:58:58;5.15;;;1.70;;
23720;SDS011;42950;52.134;5.578;2022-09-01T07:01:25;3.55;;;1.48;;
23720;SDS011;42950;52.134;5.578;2022-09-01T07:03:52;4.10;;;1.50;;
23720;SDS011;42950;52.134;5.578;2022-09-01T07:06:20;5.50;;;1.70;;
23720;SDS011;42950;52.134;5.578;2022-09-01T07:08:54;6.00;;;1.60;;
23720;SDS011;42950;52.134;5.578;2022-09-01T07:11:24;3.42;;;1.58;;
23720;SDS011;42950;52.134;5.578;2022-09-01T07:13:55;1.98;;;1.35;;
23720;SDS011;42950;52.134;5.578;2022-09-01T07:16:23;3.20;;;1.52;;
23720;SDS011;42950;52.134;5.578;2022-09-01T07:18:50;4.57;;;1.70;;
23720;SDS011;42950;52.134;5.578;2022-09-01T07:21:20;4.55;;;1.67;;
23720;SDS011;42950;52.134;5.578;2022-09-01T07:23:46;4.15;;;1.52;;
23720;SDS011;42950;52.134;5.578;2022-09-01T07:26:11;4.88;;;1.35;;
23720;SDS011;42950;52.134;5.578;2022-09-01T07:28:42;5.05;;;1.40;;
23720;SDS011;42950;52.134;5.578;2022-09-01T07:31:15;4.75;;;1.38;;
23720;SDS011;42950;52.134;5.578;2022-09-01T07:33:47;2.80;;;1.20;;
23720;SDS011;42950;52.134;5.578;2022-09-01T07:36:14;4.60;;;1.10;;
23720;SDS011;42950;52.134;5.578;2022-09-01T07:38:40;1.85;;;1.08;;
23720;SDS011;42950;52.134;5.578;2022-09-01T07:41:09;2.28;;;1.17;;
23720;SDS011;42950;52.134;5.578;2022-09-01T07:43:37;2.95;;;1.23;;
23720;SDS011;42950;52.134;5.578;2022-09-01T07:46:05;1.92;;;1.20;;
23720;SDS011;42950;52.134;5.578;2022-09-01T07:48:32;2.17;;;1.33;;
23720;SDS011;42950;52.134;5.578;2022-09-01T07:50:57;1.73;;;0.90;;
23720;SDS011;42950;52.134;5.578;2022-09-01T07:53:24;1.88;;;0.90;;
23720;SDS011;42950;52.134;5.578;2022-09-01T07:55:53;2.30;;;1.20;;
23720;SDS011;42950;52.134;5.578;2022-09-01T07:58:20;5.05;;;1.27;;
23720;SDS011;42950;52.134;5.578;2022-09-01T08:00:48;4.50;;;1.00;;
23720;SDS011;42950;52.134;5.578;2022-09-01T08:03:15;2.05;;;1.08;;
23720;SDS011;42950;52.134;5.578;2022-09-01T08:05:42;4.45;;;1.23;;
23720;SDS011;42950;52.134;5.578;2022-09-01T08:08:08;2.38;;;0.90;;
23720;SDS011;42950;52.134;5.578;2022-09-01T08:10:37;1.33;;;1.00;;
23720;SDS011;42950;52.134;5.578;2022-09-01T08:13:04;2.58;;;0.90;;
23720;SDS011;42950;52.134;5.578;2022-09-01T08:15:30;3.95;;;1.40;;
23720;SDS011;42950;52.134;5.578;2022-09-01T08:17:55;4.72;;;1.08;;
23720;SDS011;42950;52.134;5.578;2022-09-01T08:20:21;4.70;;;1.00;;
23720;SDS011;42950;52.134;5.578;2022-09-01T08:22:47;2.40;;;0.70;;
23720;SDS011;42950;52.134;5.578;2022-09-01T08:25:12;1.30;;;0.98;;
23720;SDS011;42950;52.134;5.578;2022-09-01T08:27:39;1.92;;;0.77;;
23720;SDS011;42950;52.134;5.578;2022-09-01T08:30:05;1.65;;;1.00;;
23720;SDS011;42950;52.134;5.578;2022-09-01T08:32:33;1.70;;;0.80;;
23720;SDS011;42950;52.134;5.578;2022-09-01T08:34:59;2.55;;;0.93;;
23720;SDS011;42950;52.134;5.578;2022-09-01T08:37:25;2.97;;;0.88;;
23720;SDS011;42950;52.134;5.578;2022-09-01T08:39:51;2.58;;;0.90;;
23720;SDS011;42950;52.134;5.578;2022-09-01T08:43:04;4.20;;;1.00;;
23720;SDS011;42950;52.134;5.578;2022-09-01T08:57:04;1.73;;;0.70;;
23720;SDS011;42950;52.134;5.578;2022-09-01T08:59:37;4.13;;;0.90;;
23720;SDS011;42950;52.134;5.578;2022-09-01T09:05:07;0.90;;;0.82;;
23720;SDS011;42950;52.134;5.578;2022-09-01T09:16:11;2.45;;;0.80;;
23720;SDS011;42950;52.134;5.578;2022-09-01T09:18:49;2.40;;;0.70;;
23720;SDS011;42950;52.134;5.578;2022-09-01T09:21:35;0.95;;;0.70;;
23720;SDS011;42950;52.134;5.578;2022-09-01T09:24:28;1.00;;;0.60;;
23720;SDS011;42950;52.134;5.578;2022-09-01T09:27:33;0.88;;;0.70;;
23720;SDS011;42950;52.134;5.578;2022-09-01T09:29:59;1.33;;;0.70;;
23720;SDS011;42950;52.134;5.578;2022-09-01T09:37:50;3.38;;;0.63;;
23720;SDS011;42950;52.134;5.578;2022-09-01T09:45:22;1.38;;;0.60;;
23720;SDS011;42950;52.134;5.578;2022-09-01T09:47:50;1.45;;;0.60;;
23720;SDS011;42950;52.134;5.578;2022-09-01T09:52:47;1.40;;;0.50;;
23720;SDS011;42950;52.134;5.578;2022-09-01T09:57:45;3.90;;;0.50;;
23720;SDS011;42950;52.134;5.578;2022-09-01T10:00:20;2.05;;;0.60;;
23720;SDS011;42950;52.134;5.578;2022-09-01T10:02:54;4.13;;;0.75;;
23720;SDS011;42950;52.134;5.578;2022-09-01T10:08:35;2.72;;;0.63;;
23720;SDS011;42950;52.134;5.578;2022-09-01T10:10:50;3.20;;;0.65;;
23720;SDS011;42950;52.134;5.578;2022-09-01T10:13:17;2.30;;;0.40;;
23720;SDS011;42950;52.134;5.578;2022-09-01T10:15:48;6.13;;;0.63;;
23720;SDS011;42950;52.134;5.578;2022-09-01T10:18:18;2.53;;;0.70;;
23720;SDS011;42950;52.134;5.578;2022-09-01T10:20:53;2.05;;;0.73;;
23720;SDS011;42950;52.134;5.578;2022-09-01T10:23:24;1.17;;;0.65;;
23720;SDS011;42950;52.134;5.578;2022-09-01T10:25:52;3.83;;;0.80;;
23720;SDS011;42950;52.134;5.578;2022-09-01T10:28:23;1.25;;;0.55;;
23720;SDS011;42950;52.134;5.578;2022-09-01T10:30:51;1.15;;;0.55;;
23720;SDS011;42950;52.134;5.578;2022-09-01T10:33:18;4.65;;;0.70;;
23720;SDS011;42950;52.134;5.578;2022-09-01T10:35:47;3.03;;;0.50;;
23720;SDS011;42950;52.134;5.578;2022-09-01T10:38:18;0.70;;;0.52;;
23720;SDS011;42950;52.134;5.578;2022-09-01T10:40:48;2.72;;;0.73;;
23720;SDS011;42950;52.134;5.578;2022-09-01T10:43:38;0.95;;;0.40;;
23720;SDS011;42950;52.134;5.578;2022-09-01T10:48:51;0.73;;;0.50;;
23720;SDS011;42950;52.134;5.578;2022-09-01T10:53:47;3.08;;;0.40;;
23720;SDS011;42950;52.134;5.578;2022-09-01T11:04:17;1.00;;;0.60;;
23720;SDS011;42950;52.134;5.578;2022-09-01T11:07:05;1.88;;;0.55;;
23720;SDS011;42950;52.134;5.578;2022-09-01T11:15:35;0.93;;;0.40;;
23720;SDS011;42950;52.134;5.578;2022-09-01T11:18:10;0.75;;;0.50;;
23720;SDS011;42950;52.134;5.578;2022-09-01T11:21:13;0.80;;;0.40;;
23720;SDS011;42950;52.134;5.578;2022-09-01T11:23:42;3.60;;;0.50;;
23720;SDS011;42950;52.134;5.578;2022-09-01T11:28:58;0.60;;;0.43;;
23720;SDS011;42950;52.134;5.578;2022-09-01T11:34:15;1.02;;;0.50;;
23720;SDS011;42950;52.134;5.578;2022-09-01T11:47:14;0.50;;;0.50;;
23720;SDS011;42950;52.134;5.578;2022-09-01T11:50:07;1.92;;;0.60;;
23720;SDS011;42950;52.134;5.578;2022-09-01T11:52:51;1.27;;;0.40;;
23720;SDS011;42950;52.134;5.578;2022-09-01T11:55:36;3.85;;;0.43;;
23720;SDS011;42950;52.134;5.578;2022-09-01T11:58:13;1.58;;;0.43;;
23720;SDS011;42950;52.134;5.578;2022-09-01T12:00:56;1.33;;;0.40;;
23720;SDS011;42950;52.134;5.578;2022-09-01T12:03:36;3.22;;;0.60;;
23720;SDS011;42950;52.134;5.578;2022-09-01T12:06:03;1.10;;;0.50;;
23720;SDS011;42950;52.134;5.578;2022-09-01T12:08:35;0.93;;;0.50;;
23720;SDS011;42950;52.134;5.578;2022-09-01T12:13:32;2.28;;;0.63;;
23720;SDS011;42950;52.134;5.578;2022-09-01T12:15:59;0.40;;;0.38;;
23720;SDS011;42950;52.134;5.578;2022-09-01T12:18:35;2.05;;;0.63;;
23720;SDS011;42950;52.134;5.578;2022-09-01T12:21:15;2.47;;;0.50;;
23720;SDS011;42950;52.134;5.578;2022-09-01T12:23:50;0.77;;;0.70;;
23720;SDS011;42950;52.134;5.578;2022-09-01T12:26:19;0.65;;;0.57;;
23720;SDS011;42950;52.134;5.578;2022-09-01T12:28:51;0.68;;;0.50;;
23720;SDS011;42950;52.134;5.578;2022-09-01T12:31:21;2.05;;;0.60;;
23720;SDS011;42950;52.134;5.578;2022-09-01T12:33:49;1.20;;;0.30;;
23720;SDS011;42950;52.134;5.578;2022-09-01T12:36:29;2.25;;;0.68;;
23720;SDS011;42950;52.134;5.578;2022-09-01T12:41:44;2.80;;;0.60;;
23720;SDS011;42950;52.134;5.578;2022-09-01T12:44:25;4.18;;;0.60;;
23720;SDS011;42950;52.134;5.578;2022-09-01T12:47:07;3.95;;;0.70;;
23720;SDS011;42950;52.134;5.578;2022-09-01T12:49:56;3.15;;;0.50;;
23720;SDS011;42950;52.134;5.578;2022-09-01T12:52:25;1.83;;;0.60;;
23720;SDS011;42950;52.134;5.578;2022-09-01T12:57:37;3.28;;;0.70;;
23720;SDS011;42950;52.134;5.578;2022-09-01T13:05:32;3.17;;;0.65;;
23720;SDS011;42950;52.134;5.578;2022-09-01T13:08:03;1.38;;;0.73;;
23720;SDS011;42950;52.134;5.578;2022-09-01T13:10:31;3.65;;;0.70;;
23720;SDS011;42950;52.134;5.578;2022-09-01T13:13:06;2.70;;;0.90;;
23720;SDS011;42950;52.134;5.578;2022-09-01T13:15:34;5.68;;;0.57;;
23720;SDS011;42950;52.134;5.578;2022-09-01T13:18:02;1.50;;;0.77;;
23720;SDS011;42950;52.134;5.578;2022-09-01T13:20:27;3.03;;;0.80;;
23720;SDS011;42950;52.134;5.578;2022-09-01T13:22:54;1.30;;;0.60;;
23720;SDS011;42950;52.134;5.578;2022-09-01T13:25:20;2.25;;;0.68;;
23720;SDS011;42950;52.134;5.578;2022-09-01T13:27:47;2.63;;;0.60;;
23720;SDS011;42950;52.134;5.578;2022-09-01T13:30:15;2.58;;;0.77;;
23720;SDS011;42950;52.134;5.578;2022-09-01T13:32:43;2.55;;;0.63;;
23720;SDS011;42950;52.134;5.578;2022-09-01T13:35:10;2.13;;;0.70;;
23720;SDS011;42950;52.134;5.578;2022-09-01T13:37:37;2.47;;;0.60;;
23720;SDS011;42950;52.134;5.578;2022-09-01T13:40:03;1.73;;;0.50;;
23720;SDS011;42950;52.134;5.578;2022-09-01T13:42:39;2.28;;;0.60;;
23720;SDS011;42950;52.134;5.578;2022-09-01T13:45:08;0.70;;;0.60;;
23720;SDS011;42950;52.134;5.578;2022-09-01T13:47:37;3.17;;;0.47;;
23720;SDS011;42950;52.134;5.578;2022-09-01T13:50:03;2.15;;;0.47;;
23720;SDS011;42950;52.134;5.578;2022-09-01T13:52:29;1.65;;;0.73;;
23720;SDS011;42950;52.134;5.578;2022-09-01T13:54:55;1.30;;;0.40;;
23720;SDS011;42950;52.134;5.578;2022-09-01T13:57:20;2.47;;;0.65;;
23720;SDS011;42950;52.134;5.578;2022-09-01T13:59:46;3.08;;;0.70;;
23720;SDS011;42950;52.134;5.578;2022-09-01T14:02:11;1.35;;;0.60;;
23720;SDS011;42950;52.134;5.578;2022-09-01T14:04:37;1.55;;;0.65;;
23720;SDS011;42950;52.134;5.578;2022-09-01T14:07:02;3.40;;;0.60;;
23720;SDS011;42950;52.134;5.578;2022-09-01T14:09:28;4.65;;;0.70;;
23720;SDS011;42950;52.134;5.578;2022-09-01T14:11:54;1.50;;;0.60;;
23720;SDS011;42950;52.134;5.578;2022-09-01T14:14:20;2.95;;;0.70;;
23720;SDS011;42950;52.134;5.578;2022-09-01T14:16:46;0.60;;;0.50;;
23720;SDS011;42950;52.134;5.578;2022-09-01T14:19:11;1.42;;;0.60;;
23720;SDS011;42950;52.134;5.578;2022-09-01T14:21:37;1.42;;;0.60;;
23720;SDS011;42950;52.134;5.578;2022-09-01T14:24:03;2.40;;;0.68;;
23720;SDS011;42950;52.134;5.578;2022-09-01T14:26:29;1.63;;;0.63;;
23720;SDS011;42950;52.134;5.578;2022-09-01T14:28:55;2.08;;;0.60;;
23720;SDS011;42950;52.134;5.578;2022-09-01T14:31:21;3.22;;;0.45;;
23720;SDS011;42950;52.134;5.578;2022-09-01T14:33:47;5.47;;;0.63;;
23720;SDS011;42950;52.134;5.578;2022-09-01T14:36:17;1.70;;;0.70;;
23720;SDS011;42950;52.134;5.578;2022-09-01T14:38:46;4.38;;;0.60;;
23720;SDS011;42950;52.134;5.578;2022-09-01T14:41:13;2.08;;;0.63;;
23720;SDS011;42950;52.134;5.578;2022-09-01T14:43:40;1.63;;;0.80;;
23720;SDS011;42950;52.134;5.578;2022-09-01T14:46:07;1.15;;;0.60;;
23720;SDS011;42950;52.134;5.578;2022-09-01T14:48:35;1.27;;;0.68;;
23720;SDS011;42950;52.134;5.578;2022-09-01T14:51:02;1.23;;;0.60;;
23720;SDS011;42950;52.134;5.578;2022-09-01T14:53:28;1.95;;;0.73;;
23720;SDS011;42950;52.134;5.578;2022-09-01T14:55:55;2.50;;;0.60;;
23720;SDS011;42950;52.134;5.578;2022-09-01T14:58:25;1.40;;;0.60;;
23720;SDS011;42950;52.134;5.578;2022-09-01T15:00:53;4.82;;;0.70;;
23720;SDS011;42950;52.134;5.578;2022-09-01T15:03:20;3.40;;;0.63;;
23720;SDS011;42950;52.134;5.578;2022-09-01T15:05:47;2.75;;;0.80;;
23720;SDS011;42950;52.134;5.578;2022-09-01T15:08:14;1.67;;;0.70;;
23720;SDS011;42950;52.134;5.578;2022-09-01T15:10:40;3.70;;;0.60;;
23720;SDS011;42950;52.134;5.578;2022-09-01T15:13:06;1.50;;;0.60;;
23720;SDS011;42950;52.134;5.578;2022-09-01T15:15:32;2.42;;;0.80;;
23720;SDS011;42950;52.134;5.578;2022-09-01T15:17:58;2.15;;;0.73;;
23720;SDS011;42950;52.134;5.578;2022-09-01T15:20:25;1.33;;;0.70;;
23720;SDS011;42950;52.134;5.578;2022-09-01T15:23:10;4.60;;;0.70;;
23720;SDS011;42950;52.134;5.578;2022-09-01T15:25:37;1.88;;;0.80;;
23720;SDS011;42950;52.134;5.578;2022-09-01T15:28:03;1.10;;;0.70;;
23720;SDS011;42950;52.134;5.578;2022-09-01T15:30:30;1.73;;;0.80;;
23720;SDS011;42950;52.134;5.578;2022-09-01T15:32:56;2.55;;;0.70;;
23720;SDS011;42950;52.134;5.578;2022-09-01T15:35:22;3.80;;;0.70;;
23720;SDS011;42950;52.134;5.578;2022-09-01T15:37:48;2.72;;;0.70;;
23720;SDS011;42950;52.134;5.578;2022-09-01T15:40:15;1.30;;;0.60;;
23720;SDS011;42950;52.134;5.578;2022-09-01T15:42:41;0.95;;;0.63;;
23720;SDS011;42950;52.134;5.578;2022-09-01T15:45:09;1.02;;;0.70;;
23720;SDS011;42950;52.134;5.578;2022-09-01T15:47:37;4.20;;;0.68;;
23720;SDS011;42950;52.134;5.578;2022-09-01T15:50:04;0.90;;;0.60;;
23720;SDS011;42950;52.134;5.578;2022-09-01T15:52:31;5.40;;;0.60;;
23720;SDS011;42950;52.134;5.578;2022-09-01T15:54:58;1.73;;;0.80;;
23720;SDS011;42950;52.134;5.578;2022-09-01T15:57:24;1.80;;;0.70;;
23720;SDS011;42950;52.134;5.578;2022-09-01T15:59:49;2.85;;;0.65;;
23720;SDS011;42950;52.134;5.578;2022-09-01T16:02:15;2.15;;;0.80;;
23720;SDS011;42950;52.134;5.578;2022-09-01T16:04:42;1.38;;;0.73;;
23720;SDS011;42950;52.134;5.578;2022-09-01T16:07:08;1.95;;;0.95;;
23720;SDS011;42950;52.134;5.578;2022-09-01T16:09:33;2.08;;;0.60;;
23720;SDS011;42950;52.134;5.578;2022-09-01T16:12:01;1.27;;;0.50;;
23720;SDS011;42950;52.134;5.578;2022-09-01T16:14:27;3.45;;;0.73;;
23720;SDS011;42950;52.134;5.578;2022-09-01T16:17:00;1.48;;;0.60;;
23720;SDS011;42950;52.134;5.578;2022-09-01T16:19:35;7.03;;;0.90;;
23720;SDS011;42950;52.134;5.578;2022-09-01T16:24:43;2.97;;;0.65;;
23720;SDS011;42950;52.134;5.578;2022-09-01T16:27:12;0.65;;;0.60;;
23720;SDS011;42950;52.134;5.578;2022-09-01T16:29:45;2.00;;;0.75;;
23720;SDS011;42950;52.134;5.578;2022-09-01T16:32:13;1.00;;;0.63;;
23720;SDS011;42950;52.134;5.578;2022-09-01T16:34:43;2.72;;;0.70;;
23720;SDS011;42950;52.134;5.578;2022-09-01T16:42:35;1.20;;;0.70;;
23720;SDS011;42950;52.134;5.578;2022-09-01T16:47:58;4.05;;;0.85;;
23720;SDS011;42950;52.134;5.578;2022-09-01T16:50:51;2.45;;;0.77;;